Decoded Metar for KBBP ( in ) (IATA:) | Meteo·Mobile Aviation Weather
aviador You're here:

KBBP Decoded Metar

in
Report Time2020-02-22 21:35:00
UTC Time2020-02-22 21:43:52
Flight Rules vfr VFR
WindCalm
Visibility9999 m
Phenomena:N/A
Clouds:N/A
Expected CloudBase > 5,600 ft AGL from Temp-Dew spread
CeilingNone
Temp12°C
Dew Point-2°C (38% RH)
AAT9.8°C
QNH1028 hPa
Raw Report
KBBP 222135Z AUTO 00000KT 10SM CLR 12/M02 A3036 RMK AO2=

Extra information for KBBP:More info

Social comments